createdAt,value
2022-10-05T03:27:45.867Z,11.13
2022-10-05T03:30:17.559Z,11.12
2022-10-05T03:32:55.027Z,11.10
2022-10-05T03:35:29.545Z,11.09
2022-10-05T03:38:09.373Z,11.07
2022-10-05T03:40:43.272Z,11.06
2022-10-05T03:43:29.209Z,11.05
2022-10-05T03:46:12.711Z,11.04
2022-10-05T03:48:54.555Z,11.00
2022-10-05T03:51:26.023Z,10.95
2022-10-05T03:53:58.806Z,10.93
2022-10-05T03:56:34.246Z,10.87
2022-10-05T03:59:10.614Z,10.83
2022-10-05T04:01:44.247Z,10.80
2022-10-05T04:04:17.850Z,10.78
2022-10-05T04:06:57.677Z,10.72
2022-10-05T04:09:34.188Z,10.65
2022-10-05T04:12:13.664Z,10.62
2022-10-05T04:15:01.598Z,10.62
2022-10-05T04:17:39.330Z,10.61
2022-10-05T04:59:17.986Z,10.14
2022-10-05T05:02:04.317Z,10.15
2022-10-05T05:04:48.283Z,10.14
2022-10-05T05:07:35.563Z,10.11
2022-10-05T05:10:27.961Z,10.11
2022-10-05T05:13:08.951Z,10.11
2022-10-05T05:23:46.460Z,10.20
2022-10-05T05:28:57.122Z,10.23
2022-10-05T05:31:35.989Z,10.21
2022-10-05T05:34:15.661Z,10.21
2022-10-05T05:36:57.690Z,10.22
2022-10-05T05:39:33.769Z,10.23
2022-10-05T05:44:50.691Z,10.19
2022-10-05T05:50:09.620Z,10.31
2022-10-05T05:52:44.409Z,10.33
2022-10-05T05:55:24.389Z,10.30
2022-10-05T05:58:02.612Z,10.30
2022-10-05T06:00:40.275Z,10.31
2022-10-05T06:03:14.526Z,10.33
2022-10-05T06:05:47.456Z,10.34
2022-10-05T06:08:22.924Z,10.36
2022-10-05T06:10:59.607Z,10.39
2022-10-05T06:13:35.429Z,10.43
2022-10-05T06:16:15.822Z,10.50
2022-10-05T06:18:48.433Z,10.54
2022-10-05T06:21:26.121Z,10.63
2022-10-05T06:24:01.510Z,10.72
2022-10-05T06:26:44.366Z,10.78
2022-10-05T06:29:18.420Z,10.81
2022-10-05T06:31:59.374Z,10.87
2022-10-05T06:34:43.985Z,10.96
2022-10-05T06:37:22.318Z,11.07
2022-10-05T06:40:21.321Z,11.16
2022-10-05T06:43:08.413Z,11.23
2022-10-05T06:45:56.416Z,11.35
2022-10-05T06:48:43.728Z,11.47
2022-10-05T06:51:23.782Z,11.59
2022-10-05T06:54:04.880Z,11.74
2022-10-05T06:56:43.802Z,11.90
2022-10-05T06:59:23.609Z,12.01
2022-10-05T07:02:08.304Z,12.16
2022-10-05T07:04:59.891Z,12.31
2022-10-05T07:07:41.721Z,12.44
2022-10-05T07:10:29.386Z,12.60
2022-10-05T07:13:20.194Z,12.79
2022-10-05T07:16:07.545Z,13.03
2022-10-05T07:18:53.971Z,13.24
2022-10-05T07:21:40.803Z,13.44
2022-10-05T07:24:30.824Z,13.66
2022-10-05T07:27:11.542Z,13.94
2022-10-05T07:30:07.884Z,14.27
2022-10-05T07:33:07.847Z,14.59
2022-10-05T09:18:43.206Z,20.67
2022-10-05T11:42:09.376Z,28.71
2022-10-05T19:48:28.658Z,16.79
